createdAt,value
2018-12-14T00:00:47.061Z,1019.18
2018-12-14T00:01:47.073Z,1019.22
2018-12-14T00:03:47.101Z,1019.22
2018-12-14T00:04:47.114Z,1019.2
2018-12-14T00:05:47.228Z,1019.24
2018-12-14T00:06:47.140Z,1019.24
2018-12-14T00:07:47.152Z,1019.21
2018-12-14T00:08:47.170Z,1019.19
2018-12-14T00:09:47.179Z,1019.22
2018-12-14T00:10:47.193Z,1019.21
2018-12-14T00:11:47.255Z,1019.19
2018-12-14T00:12:47.221Z,1019.21
2018-12-14T00:13:47.234Z,1019.28
2018-12-14T00:14:47.246Z,1019.25
2018-12-14T00:15:47.258Z,1019.23
2018-12-14T00:16:47.273Z,1019.23
2018-12-14T00:17:47.287Z,1019.23
2018-12-14T00:19:47.313Z,1019.25
2018-12-14T00:20:47.326Z,1019.3
2018-12-14T00:21:47.342Z,1019.23
2018-12-14T00:22:47.350Z,1019.26
2018-12-14T00:23:47.368Z,1019.29
2018-12-14T00:24:47.377Z,1019.27
2018-12-14T00:25:47.392Z,1019.28
2018-12-14T00:26:47.404Z,1019.28
2018-12-14T00:27:47.417Z,1019.3
2018-12-14T00:28:47.430Z,1019.31
2018-12-14T00:29:47.445Z,1019.28
2018-12-14T00:30:47.457Z,1019.34
2018-12-14T00:31:47.473Z,1019.32
2018-12-14T00:32:47.484Z,1019.34
2018-12-14T00:33:47.497Z,1019.37
2018-12-14T00:35:47.524Z,1019.34
2018-12-14T00:36:47.536Z,1019.34
2018-12-14T00:37:47.549Z,1019.37
2018-12-14T00:38:47.565Z,1019.39
2018-12-14T00:39:47.576Z,1019.4
2018-12-14T00:40:47.589Z,1019.4
2018-12-14T00:41:51.825Z,1019.41
2018-12-14T00:42:47.616Z,1019.42
2018-12-14T00:43:47.629Z,1019.43
2018-12-14T00:44:47.642Z,1019.43
2018-12-14T00:45:47.655Z,1019.41
2018-12-14T00:46:47.668Z,1019.41
2018-12-14T00:47:47.681Z,1019.43
2018-12-14T00:48:47.696Z,1019.42
2018-12-14T00:50:47.722Z,1019.43
2018-12-14T00:51:47.734Z,1019.44
2018-12-14T00:52:47.749Z,1019.43
2018-12-14T00:53:47.763Z,1019.43
2018-12-14T00:54:47.774Z,1019.45
2018-12-14T00:55:47.788Z,1019.44
2018-12-14T00:56:47.802Z,1019.49
2018-12-14T00:57:47.817Z,1019.49
2018-12-14T00:58:47.828Z,1019.48
2018-12-14T00:59:47.843Z,1019.52
2018-12-14T01:00:47.855Z,1019.5
2018-12-14T01:01:47.866Z,1019.53
2018-12-14T01:02:47.879Z,1019.56
2018-12-14T01:03:47.945Z,1019.53
2018-12-14T01:04:47.905Z,1019.56
2018-12-14T01:05:47.921Z,1019.57
2018-12-14T01:06:47.933Z,1019.58
2018-12-14T01:07:47.949Z,1019.63
2018-12-14T01:08:47.960Z,1019.58
2018-12-14T01:09:48.021Z,1019.62
2018-12-14T01:10:47.986Z,1019.61
2018-12-14T01:11:47.999Z,1019.64
2018-12-14T01:12:48.014Z,1019.62
2018-12-14T01:13:48.023Z,1019.61
2018-12-14T01:14:48.037Z,1019.63
2018-12-14T01:15:48.050Z,1019.62
2018-12-14T01:16:48.065Z,1019.63
2018-12-14T01:17:48.078Z,1019.65
2018-12-14T01:18:48.097Z,1019.65
2018-12-14T01:19:48.103Z,1019.63
2018-12-14T01:20:48.115Z,1019.65
2018-12-14T01:22:48.143Z,1019.6
2018-12-14T01:23:48.156Z,1019.66
2018-12-14T01:24:48.169Z,1019.61
2018-12-14T01:25:48.183Z,1019.62
2018-12-14T01:26:48.197Z,1019.6
2018-12-14T01:27:48.208Z,1019.59
2018-12-14T01:28:48.220Z,1019.62
2018-12-14T01:29:48.237Z,1019.67
2018-12-14T01:30:48.255Z,1019.62
2018-12-14T01:31:48.260Z,1019.61
2018-12-14T01:32:48.274Z,1019.63
2018-12-14T01:33:48.286Z,1019.64
2018-12-14T01:34:48.302Z,1019.64
2018-12-14T01:35:48.314Z,1019.62
2018-12-14T01:36:48.326Z,1019.63
2018-12-14T01:38:48.352Z,1019.6
2018-12-14T01:39:48.366Z,1019.63
2018-12-14T01:40:48.378Z,1019.61
2018-12-14T01:41:48.391Z,1019.59
2018-12-14T01:42:48.403Z,1019.58
2018-12-14T01:43:48.421Z,1019.55
2018-12-14T01:44:48.432Z,1019.57
2018-12-14T01:45:48.443Z,1019.57
2018-12-14T01:46:48.506Z,1019.57
2018-12-14T01:47:48.469Z,1019.57
2018-12-14T01:48:48.483Z,1019.57
2018-12-14T01:49:48.495Z,1019.55
2018-12-14T01:50:48.508Z,1019.56
2018-12-14T01:51:48.521Z,1019.53
2018-12-14T01:52:48.534Z,1019.55
2018-12-14T01:54:48.560Z,1019.54
2018-12-14T01:55:48.573Z,1019.55
2018-12-14T01:56:48.586Z,1019.51
2018-12-14T01:57:48.599Z,1019.56
2018-12-14T01:58:48.612Z,1019.51
2018-12-14T01:59:48.626Z,1019.52
2018-12-14T02:00:48.638Z,1019.52
2018-12-14T02:01:48.652Z,1019.54
2018-12-14T02:02:48.666Z,1019.5
2018-12-14T02:03:48.677Z,1019.52
2018-12-14T02:04:48.689Z,1019.53
2018-12-14T02:05:48.703Z,1019.54
2018-12-14T02:06:48.719Z,1019.53
2018-12-14T02:07:48.730Z,1019.53
2018-12-14T02:08:48.741Z,1019.55
2018-12-14T02:10:48.768Z,1019.58
2018-12-14T02:11:48.781Z,1019.57
2018-12-14T02:12:48.794Z,1019.58
2018-12-14T02:13:48.807Z,1019.58
2018-12-14T02:14:48.821Z,1019.59
2018-12-14T02:15:48.834Z,1019.61
2018-12-14T02:16:48.854Z,1019.58
2018-12-14T02:17:48.863Z,1019.53
2018-12-14T02:18:48.872Z,1019.56
2018-12-14T02:19:48.884Z,1019.51
2018-12-14T02:20:48.897Z,1019.54
2018-12-14T02:21:48.912Z,1019.52
2018-12-14T02:22:48.926Z,1019.51
2018-12-14T02:23:48.939Z,1019.56
2018-12-14T02:25:48.963Z,1019.58
2018-12-14T02:26:48.979Z,1019.61
2018-12-14T02:27:48.991Z,1019.55
2018-12-14T02:28:49.001Z,1019.61
2018-12-14T02:29:49.015Z,1019.61
2018-12-14T02:30:49.029Z,1019.59
2018-12-14T02:31:49.041Z,1019.58
2018-12-14T02:32:49.056Z,1019.58
2018-12-14T02:33:49.068Z,1019.56
2018-12-14T02:34:49.079Z,1019.58
2018-12-14T02:35:49.143Z,1019.54
2018-12-14T02:36:49.106Z,1019.54
2018-12-14T02:37:49.120Z,1019.52
2018-12-14T02:38:49.131Z,1019.56
2018-12-14T02:39:49.145Z,1019.54
2018-12-14T02:40:49.160Z,1019.54
2018-12-14T02:41:49.172Z,1019.59
2018-12-14T02:42:49.184Z,1019.58
2018-12-14T02:43:49.198Z,1019.56
2018-12-14T02:44:49.209Z,1019.58
2018-12-14T02:45:49.222Z,1019.6
2018-12-14T02:46:49.235Z,1019.59
2018-12-14T02:47:49.248Z,1019.57
2018-12-14T02:48:49.261Z,1019.6
2018-12-14T02:49:49.275Z,1019.57
2018-12-14T02:50:49.287Z,1019.58
2018-12-14T02:51:49.301Z,1019.56
2018-12-14T02:52:49.315Z,1019.57
2018-12-14T02:53:49.328Z,1019.58
2018-12-14T02:54:49.338Z,1019.56
2018-12-14T02:55:49.362Z,1019.56
2018-12-14T02:57:49.377Z,1019.61
2018-12-14T02:58:49.390Z,1019.58
2018-12-14T02:59:49.404Z,1019.6
2018-12-14T03:00:49.415Z,1019.59
2018-12-14T03:01:49.480Z,1019.58
2018-12-14T03:02:49.442Z,1019.6
2018-12-14T03:03:49.454Z,1019.58
2018-12-14T03:04:49.466Z,1019.59
2018-12-14T03:05:49.480Z,1019.55
2018-12-14T03:06:49.491Z,1019.56
2018-12-14T03:07:49.506Z,1019.54
2018-12-14T03:08:49.518Z,1019.53
2018-12-14T03:09:49.611Z,1019.54
2018-12-14T03:10:49.543Z,1019.52
2018-12-14T03:11:49.559Z,1019.52
2018-12-14T03:13:49.585Z,1019.5
2018-12-14T03:14:49.596Z,1019.52
2018-12-14T03:15:49.609Z,1019.53
2018-12-14T03:16:49.623Z,1019.54
2018-12-14T03:17:49.633Z,1019.55
2018-12-14T03:18:49.649Z,1019.52
2018-12-14T03:19:49.663Z,1019.54
2018-12-14T03:20:49.674Z,1019.51
2018-12-14T03:21:49.696Z,1019.53
2018-12-14T03:22:49.698Z,1019.52
2018-12-14T03:23:49.712Z,1019.53
2018-12-14T03:24:49.727Z,1019.52
2018-12-14T03:25:49.737Z,1019.51
2018-12-14T03:26:49.750Z,1019.49
2018-12-14T03:27:49.763Z,1019.53
2018-12-14T03:29:49.788Z,1019.52
2018-12-14T03:30:49.802Z,1019.54
2018-12-14T03:31:49.814Z,1019.59
2018-12-14T03:32:49.845Z,1019.54
2018-12-14T03:33:49.839Z,1019.56
2018-12-14T03:34:49.853Z,1019.54
2018-12-14T03:35:49.865Z,1019.56
2018-12-14T03:36:49.879Z,1019.57
2018-12-14T03:37:49.891Z,1019.58
2018-12-14T03:38:49.903Z,1019.58
2018-12-14T03:39:49.920Z,1019.6
2018-12-14T03:40:49.931Z,1019.61
2018-12-14T03:41:49.944Z,1019.59
2018-12-14T03:42:49.955Z,1019.56
2018-12-14T03:43:49.969Z,1019.58
2018-12-14T03:45:49.995Z,1019.6
2018-12-14T03:46:50.009Z,1019.59
2018-12-14T03:47:50.119Z,1019.58
2018-12-14T03:48:50.034Z,1019.6
2018-12-14T03:49:50.045Z,1019.59
2018-12-14T03:50:50.057Z,1019.61
2018-12-14T03:51:50.071Z,1019.59
2018-12-14T03:52:50.083Z,1019.56
2018-12-14T03:53:50.097Z,1019.57
2018-12-14T03:54:50.110Z,1019.55
2018-12-14T03:55:50.129Z,1019.55
2018-12-14T03:56:50.139Z,1019.57
2018-12-14T03:57:50.150Z,1019.53
2018-12-14T03:58:50.161Z,1019.55
2018-12-14T04:00:50.194Z,1019.52
2018-12-14T04:01:50.202Z,1019.53
2018-12-14T04:02:50.214Z,1019.52
2018-12-14T04:03:50.226Z,1019.48
2018-12-14T04:04:50.238Z,1019.5
2018-12-14T04:05:50.250Z,1019.49
2018-12-14T04:06:50.264Z,1019.46
2018-12-14T04:07:50.277Z,1019.49
2018-12-14T04:08:50.289Z,1019.5
2018-12-14T04:09:50.302Z,1019.47
2018-12-14T04:10:50.315Z,1019.49
2018-12-14T04:11:50.328Z,1019.49
2018-12-14T04:12:50.342Z,1019.48
2018-12-14T04:13:50.353Z,1019.54
2018-12-14T04:14:50.417Z,1019.54
2018-12-14T04:15:50.381Z,1019.53
2018-12-14T04:16:50.394Z,1019.51
2018-12-14T04:17:50.404Z,1019.54
2018-12-14T04:18:50.417Z,1019.55
2018-12-14T04:19:50.429Z,1019.54
2018-12-14T04:20:50.443Z,1019.57
2018-12-14T04:21:50.456Z,1019.55
2018-12-14T04:22:50.468Z,1019.53
2018-12-14T04:23:50.480Z,1019.59
2018-12-14T04:24:50.496Z,1019.6
2018-12-14T04:25:50.506Z,1019.58
2018-12-14T04:26:50.521Z,1019.6
2018-12-14T04:27:50.535Z,1019.6
2018-12-14T04:28:50.545Z,1019.59
2018-12-14T04:29:50.558Z,1019.61
2018-12-14T04:30:50.569Z,1019.6
2018-12-14T04:32:50.598Z,1019.57
2018-12-14T04:33:50.661Z,1019.58
2018-12-14T04:34:50.620Z,1019.59
2018-12-14T04:35:50.634Z,1019.57
2018-12-14T04:36:50.647Z,1019.59
2018-12-14T04:37:50.660Z,1019.59
2018-12-14T04:38:50.673Z,1019.55
2018-12-14T04:39:50.686Z,1019.57
2018-12-14T04:40:50.698Z,1019.58
2018-12-14T04:41:50.711Z,1019.57
2018-12-14T04:42:50.723Z,1019.59
2018-12-14T04:43:50.736Z,1019.57
2018-12-14T04:44:50.754Z,1019.55
2018-12-14T04:45:50.760Z,1019.54
2018-12-14T04:46:50.775Z,1019.54
2018-12-14T04:48:50.799Z,1019.56
2018-12-14T04:49:50.813Z,1019.59
2018-12-14T04:50:50.826Z,1019.58
2018-12-14T04:51:50.839Z,1019.57
2018-12-14T04:52:50.851Z,1019.61
2018-12-14T04:53:50.863Z,1019.59
2018-12-14T04:54:50.875Z,1019.59
2018-12-14T04:55:50.888Z,1019.57
2018-12-14T04:56:51.003Z,1019.57
2018-12-14T04:57:50.914Z,1019.59
2018-12-14T04:58:50.927Z,1019.56
2018-12-14T04:59:50.940Z,1019.55
2018-12-14T05:00:50.952Z,1019.61
2018-12-14T05:01:50.964Z,1019.59
2018-12-14T05:02:50.994Z,1019.59
2018-12-14T05:04:51.004Z,1019.56
2018-12-14T05:05:51.015Z,1019.57
2018-12-14T05:06:51.031Z,1019.57
2018-12-14T05:07:51.040Z,1019.56
2018-12-14T05:08:51.053Z,1019.56
2018-12-14T05:09:51.066Z,1019.51
2018-12-14T05:10:51.079Z,1019.5
2018-12-14T05:11:51.092Z,1019.48
2018-12-14T05:12:55.961Z,1019.5
2018-12-14T05:13:51.121Z,1019.51
2018-12-14T05:14:51.135Z,1019.54
2018-12-14T05:15:51.143Z,1019.55
2018-12-14T05:16:51.155Z,1019.55
2018-12-14T05:17:51.167Z,1019.54
2018-12-14T05:18:51.182Z,1019.59
2018-12-14T05:20:51.206Z,1019.56
2018-12-14T05:21:51.269Z,1019.6
2018-12-14T05:22:51.230Z,1019.59
2018-12-14T05:23:51.244Z,1019.61
2018-12-14T05:24:51.258Z,1019.61
2018-12-14T05:25:51.271Z,1019.58
2018-12-14T05:26:51.281Z,1019.59
2018-12-14T05:27:51.295Z,1019.57
2018-12-14T05:28:51.308Z,1019.6
2018-12-14T05:29:51.320Z,1019.59
2018-12-14T05:30:51.332Z,1019.6
2018-12-14T05:31:51.346Z,1019.59
2018-12-14T05:32:51.360Z,1019.63
2018-12-14T05:33:51.379Z,1019.59
2018-12-14T05:35:51.397Z,1019.64
2018-12-14T05:36:51.411Z,1019.64
2018-12-14T05:37:51.422Z,1019.66
2018-12-14T05:38:51.435Z,1019.67
2018-12-14T05:39:51.448Z,1019.67
2018-12-14T05:40:51.460Z,1019.69
2018-12-14T05:41:51.474Z,1019.67
2018-12-14T05:42:51.486Z,1019.73
2018-12-14T05:43:51.498Z,1019.72
2018-12-14T05:44:51.512Z,1019.7
2018-12-14T05:45:51.523Z,1019.71
2018-12-14T05:46:51.537Z,1019.74
2018-12-14T05:47:51.549Z,1019.78
2018-12-14T05:48:51.562Z,1019.76
2018-12-14T05:49:51.575Z,1019.75
2018-12-14T05:50:51.588Z,1019.71
2018-12-14T05:51:51.600Z,1019.74
2018-12-14T05:52:51.615Z,1019.71
2018-12-14T05:53:51.627Z,1019.76
2018-12-14T05:54:51.640Z,1019.78
2018-12-14T05:55:51.652Z,1019.77
2018-12-14T05:56:51.663Z,1019.78
2018-12-14T05:57:51.680Z,1019.76
2018-12-14T05:58:51.688Z,1019.76
2018-12-14T05:59:51.704Z,1019.76
2018-12-14T06:00:51.718Z,1019.79
2018-12-14T06:01:51.729Z,1019.81
2018-12-14T06:02:51.742Z,1019.82
2018-12-14T06:03:51.752Z,1019.82
2018-12-14T06:04:51.765Z,1019.76
2018-12-14T06:05:51.776Z,1019.77
2018-12-14T06:07:51.803Z,1019.81
2018-12-14T06:08:51.815Z,1019.83
2018-12-14T06:09:51.828Z,1019.84
2018-12-14T06:10:51.840Z,1019.86
2018-12-14T06:11:51.853Z,1019.86
2018-12-14T06:12:51.867Z,1019.9
2018-12-14T06:13:51.881Z,1019.9
2018-12-14T06:14:51.892Z,1019.9
2018-12-14T06:15:51.904Z,1019.9
2018-12-14T06:16:51.915Z,1019.93
2018-12-14T06:17:51.929Z,1019.91
2018-12-14T06:18:51.993Z,1019.94
2018-12-14T06:19:51.956Z,1019.88
2018-12-14T06:20:51.966Z,1019.96
2018-12-14T06:21:51.982Z,1019.95
2018-12-14T06:23:52.005Z,1019.95
2018-12-14T06:24:52.021Z,1019.9
2018-12-14T06:25:52.034Z,1019.92
2018-12-14T06:26:52.047Z,1019.93
2018-12-14T06:27:52.106Z,1019.96
2018-12-14T06:28:52.067Z,1019.99
2018-12-14T06:29:52.079Z,1019.99
2018-12-14T06:30:52.095Z,1019.99
2018-12-14T06:31:52.105Z,1020.01
2018-12-14T06:32:52.120Z,1020.03
2018-12-14T06:33:52.131Z,1020.04
2018-12-14T06:34:52.144Z,1020.05
2018-12-14T06:35:52.157Z,1020.06
2018-12-14T06:36:52.170Z,1020.05
2018-12-14T06:37:52.183Z,1020.07
2018-12-14T06:39:52.205Z,1020.09
2018-12-14T06:40:52.223Z,1020.12
2018-12-14T06:41:52.234Z,1020.09
2018-12-14T06:42:52.243Z,1020.14
2018-12-14T06:43:52.256Z,1020.17
2018-12-14T06:44:52.269Z,1020.15
2018-12-14T06:45:52.283Z,1020.13
2018-12-14T06:46:52.294Z,1020.15
2018-12-14T06:47:52.307Z,1020.21
2018-12-14T06:48:52.322Z,1020.23
2018-12-14T06:49:52.332Z,1020.2
2018-12-14T06:50:52.344Z,1020.22
2018-12-14T06:51:52.358Z,1020.22
2018-12-14T06:52:52.370Z,1020.22
2018-12-14T06:53:52.383Z,1020.27
2018-12-14T06:55:52.408Z,1020.25
2018-12-14T06:56:52.421Z,1020.26
2018-12-14T06:57:52.433Z,1020.27
2018-12-14T06:58:52.445Z,1020.29
2018-12-14T06:59:52.458Z,1020.28
2018-12-14T07:00:52.469Z,1020.32
2018-12-14T07:01:52.484Z,1020.3
2018-12-14T07:02:52.546Z,1020.27
2018-12-14T07:03:52.510Z,1020.25
2018-12-14T07:04:52.522Z,1020.27
2018-12-14T07:05:52.535Z,1020.31
2018-12-14T07:06:52.548Z,1020.32
2018-12-14T07:07:52.559Z,1020.37
2018-12-14T07:08:52.574Z,1020.36
2018-12-14T07:10:52.598Z,1020.31
2018-12-14T07:11:52.609Z,1020.29
2018-12-14T07:12:52.622Z,1020.31
2018-12-14T07:13:52.637Z,1020.33
2018-12-14T07:14:52.648Z,1020.32
2018-12-14T07:15:52.663Z,1020.29
2018-12-14T07:16:52.673Z,1020.33
2018-12-14T07:17:52.685Z,1020.3
2018-12-14T07:18:52.698Z,1020.34
2018-12-14T07:19:52.710Z,1020.35
2018-12-14T07:20:52.723Z,1020.32
2018-12-14T07:21:52.736Z,1020.35
2018-12-14T07:22:52.748Z,1020.35
2018-12-14T07:23:52.762Z,1020.38
2018-12-14T07:24:52.873Z,1020.37
2018-12-14T07:25:52.790Z,1020.38
2018-12-14T07:26:52.798Z,1020.35
2018-12-14T07:27:52.811Z,1020.42
2018-12-14T07:28:52.823Z,1020.39
2018-12-14T07:29:52.837Z,1020.34
2018-12-14T07:30:52.848Z,1020.39
2018-12-14T07:31:52.861Z,1020.39
2018-12-14T07:32:52.876Z,1020.38
2018-12-14T07:33:52.887Z,1020.38
2018-12-14T07:34:52.898Z,1020.42
2018-12-14T07:35:52.911Z,1020.39
2018-12-14T07:36:52.924Z,1020.38
2018-12-14T07:37:52.936Z,1020.38
2018-12-14T07:38:52.951Z,1020.42
2018-12-14T07:39:52.962Z,1020.46
2018-12-14T07:40:52.973Z,1020.44
2018-12-14T07:42:52.998Z,1020.43
2018-12-14T07:43:53.011Z,1020.43
2018-12-14T07:44:53.167Z,1020.47
2018-12-14T07:45:53.040Z,1020.48
2018-12-14T07:46:53.050Z,1020.53
2018-12-14T07:47:53.061Z,1020.53
2018-12-14T07:48:53.074Z,1020.57
2018-12-14T07:49:53.088Z,1020.61
2018-12-14T07:50:53.103Z,1020.62
2018-12-14T07:51:53.110Z,1020.58
2018-12-14T07:52:53.125Z,1020.62
2018-12-14T07:53:53.139Z,1020.59
2018-12-14T07:54:53.152Z,1020.67
2018-12-14T07:55:53.163Z,1020.62
2018-12-14T07:56:53.176Z,1020.64
2018-12-14T07:58:53.200Z,1020.68
2018-12-14T07:59:53.214Z,1020.65
2018-12-14T08:00:53.225Z,1020.67
2018-12-14T08:01:53.237Z,1020.71
2018-12-14T08:02:53.249Z,1020.71
2018-12-14T08:03:53.262Z,1020.71
2018-12-14T08:04:53.277Z,1020.73
2018-12-14T08:05:53.288Z,1020.72
2018-12-14T08:06:53.300Z,1020.75
2018-12-14T08:07:53.313Z,1020.74
2018-12-14T08:08:53.326Z,1020.75
2018-12-14T08:09:53.339Z,1020.73
2018-12-14T08:10:53.350Z,1020.73
2018-12-14T08:11:53.363Z,1020.79
2018-12-14T08:12:53.376Z,1020.74
2018-12-14T08:14:53.401Z,1020.77
2018-12-14T08:15:53.415Z,1020.74
2018-12-14T08:16:53.428Z,1020.78
2018-12-14T08:17:53.438Z,1020.77
2018-12-14T08:18:53.451Z,1020.81
2018-12-14T08:19:53.463Z,1020.84
2018-12-14T08:20:53.478Z,1020.84
2018-12-14T08:21:53.488Z,1020.84
2018-12-14T08:22:53.502Z,1020.86
2018-12-14T08:23:53.514Z,1020.86
2018-12-14T08:24:53.527Z,1020.88
2018-12-14T08:25:53.539Z,1020.88
2018-12-14T08:26:53.552Z,1020.9
2018-12-14T08:27:53.565Z,1020.87
2018-12-14T08:28:53.576Z,1020.89
2018-12-14T08:30:53.603Z,1020.95
2018-12-14T08:31:53.616Z,1020.94
2018-12-14T08:32:53.627Z,1020.91
2018-12-14T08:33:53.639Z,1020.93
2018-12-14T08:34:53.659Z,1020.91
2018-12-14T08:35:53.666Z,1020.97
2018-12-14T08:36:53.679Z,1020.92
2018-12-14T08:37:53.690Z,1020.94
2018-12-14T08:38:53.705Z,1020.98
2018-12-14T08:39:53.715Z,1020.96
2018-12-14T08:40:53.730Z,1020.95
2018-12-14T08:41:53.741Z,1021.03
2018-12-14T08:42:53.755Z,1020.99
2018-12-14T08:43:53.767Z,1021
2018-12-14T08:45:53.794Z,1021.04
2018-12-14T08:46:53.806Z,1021.05
2018-12-14T08:47:53.821Z,1021.04
2018-12-14T08:48:53.830Z,1021.09
2018-12-14T08:49:53.843Z,1021.1
2018-12-14T08:50:53.855Z,1021.12
2018-12-14T08:51:53.869Z,1021.13
2018-12-14T08:52:53.881Z,1021.14
2018-12-14T08:53:53.894Z,1021.12
2018-12-14T08:54:53.906Z,1021.18
2018-12-14T08:55:53.920Z,1021.17
2018-12-14T08:56:53.932Z,1021.16
2018-12-14T08:57:53.997Z,1021.18
2018-12-14T08:58:53.959Z,1021.21
2018-12-14T08:59:53.970Z,1021.23
2018-12-14T09:00:53.983Z,1021.21
2018-12-14T09:01:53.996Z,1021.21
2018-12-14T09:02:54.009Z,1021.22
2018-12-14T09:03:54.021Z,1021.28
2018-12-14T09:04:54.033Z,1021.21
2018-12-14T09:05:54.048Z,1021.24
2018-12-14T09:06:54.059Z,1021.25
2018-12-14T09:07:54.073Z,1021.23
2018-12-14T09:08:54.084Z,1021.24
2018-12-14T09:09:54.097Z,1021.25
2018-12-14T09:10:54.109Z,1021.28
2018-12-14T09:11:54.123Z,1021.27
2018-12-14T09:12:54.143Z,1021.32
2018-12-14T09:13:54.148Z,1021.35
2018-12-14T09:14:54.162Z,1021.33
2018-12-14T09:15:54.175Z,1021.37
2018-12-14T09:17:54.200Z,1021.32
2018-12-14T09:18:54.212Z,1021.33
2018-12-14T09:19:54.224Z,1021.3
2018-12-14T09:20:54.244Z,1021.31
2018-12-14T09:21:54.252Z,1021.3
2018-12-14T09:22:54.267Z,1021.27
2018-12-14T09:23:54.277Z,1021.3
2018-12-14T09:24:54.290Z,1021.33
2018-12-14T09:25:54.302Z,1021.32
2018-12-14T09:26:54.322Z,1021.37
2018-12-14T09:27:54.333Z,1021.33
2018-12-14T09:28:54.391Z,1021.38
2018-12-14T09:29:54.355Z,1021.39
2018-12-14T09:30:54.368Z,1021.38
2018-12-14T09:31:54.378Z,1021.36
2018-12-14T09:33:54.405Z,1021.39
2018-12-14T09:34:54.466Z,1021.36
2018-12-14T09:35:54.429Z,1021.37
2018-12-14T09:36:54.444Z,1021.37
2018-12-14T09:37:54.455Z,1021.38
2018-12-14T09:38:54.478Z,1021.37
2018-12-14T09:39:54.480Z,1021.35
2018-12-14T09:40:54.494Z,1021.38
2018-12-14T09:41:54.508Z,1021.38
2018-12-14T09:42:54.520Z,1021.42
2018-12-14T09:43:54.620Z,1021.4
2018-12-14T09:44:54.546Z,1021.39
2018-12-14T09:45:54.557Z,1021.45
2018-12-14T09:46:54.573Z,1021.39
2018-12-14T09:47:54.585Z,1021.39
2018-12-14T09:49:54.612Z,1021.39
2018-12-14T09:50:54.630Z,1021.35
2018-12-14T09:51:54.635Z,1021.37
2018-12-14T09:52:54.647Z,1021.36
2018-12-14T09:53:54.660Z,1021.36
2018-12-14T09:54:54.675Z,1021.34
2018-12-14T09:55:54.689Z,1021.36
2018-12-14T09:56:54.701Z,1021.36
2018-12-14T09:57:54.713Z,1021.37
2018-12-14T09:58:54.727Z,1021.37
2018-12-14T09:59:54.738Z,1021.33
2018-12-14T10:00:54.750Z,1021.35
2018-12-14T10:01:54.766Z,1021.36
2018-12-14T10:02:54.776Z,1021.37
2018-12-14T10:03:54.788Z,1021.32
2018-12-14T10:05:54.816Z,1021.37
2018-12-14T10:06:54.828Z,1021.37
2018-12-14T10:07:54.841Z,1021.35
2018-12-14T10:08:54.956Z,1021.35
2018-12-14T10:09:54.867Z,1021.34
2018-12-14T10:10:54.880Z,1021.35
2018-12-14T10:11:55.504Z,1021.32
2018-12-14T10:12:54.906Z,1021.35
2018-12-14T10:14:00.605Z,1021.36
2018-12-14T10:14:54.931Z,1021.34
2018-12-14T10:15:54.944Z,1021.36
2018-12-14T10:16:54.958Z,1021.33
2018-12-14T10:17:54.973Z,1021.36
2018-12-14T10:18:54.987Z,1021.34
2018-12-14T10:20:55.011Z,1021.31
2018-12-14T10:21:55.023Z,1021.32
2018-12-14T10:22:55.044Z,1021.31
2018-12-14T10:23:55.054Z,1021.32
2018-12-14T10:24:55.063Z,1021.33
2018-12-14T10:25:55.075Z,1021.25
2018-12-14T10:26:55.088Z,1021.26
2018-12-14T10:27:55.101Z,1021.26
2018-12-14T10:28:55.114Z,1021.27
2018-12-14T10:29:55.128Z,1021.3
2018-12-14T10:30:55.141Z,1021.31
2018-12-14T10:31:55.153Z,1021.33
2018-12-14T10:32:55.166Z,1021.28
2018-12-14T10:33:55.179Z,1021.3
2018-12-14T10:34:55.196Z,1021.32
2018-12-14T10:35:55.208Z,1021.29
2018-12-14T10:36:55.220Z,1021.26
2018-12-14T10:37:55.233Z,1021.27
2018-12-14T10:38:55.245Z,1021.28
2018-12-14T10:39:55.257Z,1021.3
2018-12-14T10:40:55.271Z,1021.3
2018-12-14T10:41:55.285Z,1021.34
2018-12-14T10:42:55.298Z,1021.31
2018-12-14T10:43:55.314Z,1021.32
2018-12-14T10:44:55.325Z,1021.31
2018-12-14T10:45:55.337Z,1021.31
2018-12-14T10:46:55.350Z,1021.27
2018-12-14T10:47:55.364Z,1021.28
2018-12-14T10:48:55.377Z,1021.25
2018-12-14T10:49:55.390Z,1021.26
2018-12-14T10:50:55.402Z,1021.26
2018-12-14T10:52:55.429Z,1021.26
2018-12-14T10:53:55.443Z,1021.25
2018-12-14T10:54:55.456Z,1021.25
2018-12-14T10:55:55.468Z,1021.28
2018-12-14T10:56:55.482Z,1021.29
2018-12-14T10:57:55.496Z,1021.26
2018-12-14T10:58:55.513Z,1021.28
2018-12-14T10:59:55.524Z,1021.3
2018-12-14T11:00:55.537Z,1021.27
2018-12-14T11:01:55.550Z,1021.3
2018-12-14T11:02:55.611Z,1021.3
2018-12-14T11:03:55.627Z,1021.26
2018-12-14T11:04:55.588Z,1021.32
2018-12-14T11:05:55.601Z,1021.28
2018-12-14T11:06:55.615Z,1021.31
2018-12-14T11:08:55.643Z,1021.27
2018-12-14T11:09:55.658Z,1021.25
2018-12-14T11:10:55.669Z,1021.28
2018-12-14T11:11:55.684Z,1021.22
2018-12-14T11:12:55.747Z,1021.26
2018-12-14T11:13:55.716Z,1021.3
2018-12-14T11:14:55.722Z,1021.31
2018-12-14T11:15:55.735Z,1021.33
2018-12-14T11:16:55.750Z,1021.3
2018-12-14T11:17:55.763Z,1021.28
2018-12-14T11:18:55.778Z,1021.28
2018-12-14T11:19:55.789Z,1021.29
2018-12-14T11:20:55.804Z,1021.25
2018-12-14T11:21:55.817Z,1021.29
2018-12-14T11:22:55.829Z,1021.29
2018-12-14T11:24:55.855Z,1021.3
2018-12-14T11:25:55.872Z,1021.28
2018-12-14T11:26:55.883Z,1021.27
2018-12-14T11:27:55.896Z,1021.27
2018-12-14T11:28:55.911Z,1021.3
2018-12-14T11:29:55.923Z,1021.3
2018-12-14T11:30:55.937Z,1021.31
2018-12-14T11:31:55.951Z,1021.36
2018-12-14T11:32:55.966Z,1021.33
2018-12-14T11:33:55.977Z,1021.3
2018-12-14T11:34:55.990Z,1021.31
2018-12-14T11:35:56.004Z,1021.32
2018-12-14T11:36:56.020Z,1021.36
2018-12-14T11:37:56.031Z,1021.31
2018-12-14T11:38:56.044Z,1021.31
2018-12-14T11:40:56.071Z,1021.31
2018-12-14T11:41:56.085Z,1021.38
2018-12-14T11:42:56.098Z,1021.35
2018-12-14T11:43:56.113Z,1021.32
2018-12-14T11:44:56.125Z,1021.32
2018-12-14T11:45:56.139Z,1021.32
2018-12-14T11:46:56.152Z,1021.35
2018-12-14T11:47:56.169Z,1021.38
2018-12-14T11:48:56.180Z,1021.34
2018-12-14T11:49:56.193Z,1021.42
2018-12-14T11:50:56.206Z,1021.48
2018-12-14T11:51:56.220Z,1021.43
2018-12-14T11:52:56.236Z,1021.45
2018-12-14T11:53:56.249Z,1021.47
2018-12-14T11:55:57.537Z,1021.49
2018-12-14T11:56:56.290Z,1021.49
2018-12-14T11:57:56.302Z,1021.54
2018-12-14T11:58:56.316Z,1021.53
2018-12-14T11:59:56.379Z,1021.51
2018-12-14T12:00:56.344Z,1021.57
2018-12-14T12:01:56.358Z,1021.52
2018-12-14T12:02:56.428Z,1021.55
2018-12-14T12:03:56.383Z,1021.55
2018-12-14T12:04:56.398Z,1021.54
2018-12-14T12:05:56.460Z,1021.53
2018-12-14T12:06:56.426Z,1021.56
2018-12-14T12:07:56.437Z,1021.57
2018-12-14T12:08:56.451Z,1021.55
2018-12-14T12:09:56.479Z,1021.53
2018-12-14T12:10:56.478Z,1021.56
2018-12-14T12:11:56.493Z,1021.53
2018-12-14T12:12:56.556Z,1021.59
2018-12-14T12:13:56.568Z,1021.56
2018-12-14T12:14:56.531Z,1021.57
2018-12-14T12:15:56.546Z,1021.55
2018-12-14T12:16:56.564Z,1021.61
2018-12-14T12:17:56.572Z,1021.57
2018-12-14T12:18:56.585Z,1021.6
2018-12-14T12:19:56.599Z,1021.64
2018-12-14T12:20:56.613Z,1021.53
2018-12-14T12:21:56.627Z,1021.55
2018-12-14T12:22:56.639Z,1021.56
2018-12-14T12:23:56.653Z,1021.55
2018-12-14T12:24:56.667Z,1021.56
2018-12-14T12:25:56.680Z,1021.57
2018-12-14T12:27:56.707Z,1021.55
2018-12-14T12:28:56.721Z,1021.53
2018-12-14T12:29:56.735Z,1021.51
2018-12-14T12:30:56.768Z,1021.53
2018-12-14T12:31:56.762Z,1021.53
2018-12-14T12:32:56.777Z,1021.52
2018-12-14T12:33:56.788Z,1021.55
2018-12-14T12:34:56.800Z,1021.51
2018-12-14T12:35:56.815Z,1021.51
2018-12-14T12:36:56.827Z,1021.49
2018-12-14T12:37:56.843Z,1021.51
2018-12-14T12:38:56.855Z,1021.47
2018-12-14T12:39:56.870Z,1021.44
2018-12-14T12:40:56.883Z,1021.45
2018-12-14T12:41:56.895Z,1021.47
2018-12-14T12:43:56.921Z,1021.43
2018-12-14T12:44:56.934Z,1021.48
2018-12-14T12:45:56.948Z,1021.48
2018-12-14T12:46:56.961Z,1021.47
2018-12-14T12:47:56.974Z,1021.48
2018-12-14T12:48:56.988Z,1021.48